sensor_id;sensor_type;location;lat;lon;timestamp;P1;durP1;ratioP1;P2;durP2;ratioP2
19867;SDS011;10096;51.112;6.776;2023-06-05T00:02:17;4.10;;;2.53;;
19867;SDS011;10096;51.112;6.776;2023-06-05T00:04:45;2.53;;;2.33;;
19867;SDS011;10096;51.112;6.776;2023-06-05T00:07:13;4.75;;;2.67;;
19867;SDS011;10096;51.112;6.776;2023-06-05T00:09:41;3.38;;;2.70;;
19867;SDS011;10096;51.112;6.776;2023-06-05T00:12:10;3.17;;;2.70;;
19867;SDS011;10096;51.112;6.776;2023-06-05T00:14:38;7.00;;;3.00;;
19867;SDS011;10096;51.112;6.776;2023-06-05T00:17:06;2.63;;;2.42;;
19867;SDS011;10096;51.112;6.776;2023-06-05T00:19:36;3.38;;;2.95;;
19867;SDS011;10096;51.112;6.776;2023-06-05T00:22:04;3.95;;;2.47;;
19867;SDS011;10096;51.112;6.776;2023-06-05T00:24:32;3.55;;;2.75;;
19867;SDS011;10096;51.112;6.776;2023-06-05T00:27:00;3.53;;;2.75;;
19867;SDS011;10096;51.112;6.776;2023-06-05T00:29:29;7.00;;;2.80;;
19867;SDS011;10096;51.112;6.776;2023-06-05T00:31:57;2.88;;;2.58;;
19867;SDS011;10096;51.112;6.776;2023-06-05T00:34:26;5.63;;;3.00;;
19867;SDS011;10096;51.112;6.776;2023-06-05T00:36:54;4.47;;;2.85;;
19867;SDS011;10096;51.112;6.776;2023-06-05T00:39:23;4.32;;;3.05;;
19867;SDS011;10096;51.112;6.776;2023-06-05T00:41:51;3.42;;;3.10;;
19867;SDS011;10096;51.112;6.776;2023-06-05T00:44:19;4.40;;;3.40;;
19867;SDS011;10096;51.112;6.776;2023-06-05T00:46:49;5.40;;;2.95;;
19867;SDS011;10096;51.112;6.776;2023-06-05T00:49:19;5.47;;;3.03;;
19867;SDS011;10096;51.112;6.776;2023-06-05T00:51:47;5.75;;;2.90;;
19867;SDS011;10096;51.112;6.776;2023-06-05T00:54:15;4.88;;;3.17;;
19867;SDS011;10096;51.112;6.776;2023-06-05T00:56:43;4.32;;;3.10;;
19867;SDS011;10096;51.112;6.776;2023-06-05T00:59:16;3.47;;;2.90;;
19867;SDS011;10096;51.112;6.776;2023-06-05T01:01:44;4.32;;;3.33;;
19867;SDS011;10096;51.112;6.776;2023-06-05T01:04:14;5.95;;;3.05;;
19867;SDS011;10096;51.112;6.776;2023-06-05T01:06:42;4.93;;;3.25;;
19867;SDS011;10096;51.112;6.776;2023-06-05T01:09:10;5.32;;;3.45;;
19867;SDS011;10096;51.112;6.776;2023-06-05T01:11:38;4.90;;;3.08;;
19867;SDS011;10096;51.112;6.776;2023-06-05T01:14:15;5.78;;;4.15;;
19867;SDS011;10096;51.112;6.776;2023-06-05T01:16:47;5.25;;;3.47;;
19867;SDS011;10096;51.112;6.776;2023-06-05T01:19:18;5.68;;;3.75;;
19867;SDS011;10096;51.112;6.776;2023-06-05T01:21:49;7.40;;;3.25;;
19867;SDS011;10096;51.112;6.776;2023-06-05T01:24:19;5.05;;;3.35;;
19867;SDS011;10096;51.112;6.776;2023-06-05T01:27:01;5.10;;;3.28;;
19867;SDS011;10096;51.112;6.776;2023-06-05T01:29:34;5.43;;;3.00;;
19867;SDS011;10096;51.112;6.776;2023-06-05T01:32:09;4.07;;;3.03;;
19867;SDS011;10096;51.112;6.776;2023-06-05T01:34:42;4.43;;;3.28;;
19867;SDS011;10096;51.112;6.776;2023-06-05T01:37:13;8.35;;;3.13;;
19867;SDS011;10096;51.112;6.776;2023-06-05T01:39:45;5.13;;;2.85;;
19867;SDS011;10096;51.112;6.776;2023-06-05T01:42:14;4.82;;;3.72;;
19867;SDS011;10096;51.112;6.776;2023-06-05T01:44:42;7.60;;;3.50;;
19867;SDS011;10096;51.112;6.776;2023-06-05T01:47:11;7.82;;;3.63;;
19867;SDS011;10096;51.112;6.776;2023-06-05T01:49:39;6.80;;;3.88;;
19867;SDS011;10096;51.112;6.776;2023-06-05T01:52:07;5.88;;;3.55;;
19867;SDS011;10096;51.112;6.776;2023-06-05T01:54:35;5.25;;;3.65;;
19867;SDS011;10096;51.112;6.776;2023-06-05T01:57:05;5.47;;;3.35;;
19867;SDS011;10096;51.112;6.776;2023-06-05T01:59:34;5.93;;;3.90;;
19867;SDS011;10096;51.112;6.776;2023-06-05T02:02:02;5.10;;;3.58;;
19867;SDS011;10096;51.112;6.776;2023-06-05T02:04:31;4.95;;;4.18;;
19867;SDS011;10096;51.112;6.776;2023-06-05T02:06:59;5.72;;;3.97;;
19867;SDS011;10096;51.112;6.776;2023-06-05T02:09:28;4.25;;;3.38;;
19867;SDS011;10096;51.112;6.776;2023-06-05T02:11:57;4.30;;;3.50;;
19867;SDS011;10096;51.112;6.776;2023-06-05T02:14:30;4.75;;;3.75;;
19867;SDS011;10096;51.112;6.776;2023-06-05T02:17:00;5.85;;;3.80;;
19867;SDS011;10096;51.112;6.776;2023-06-05T02:19:31;5.50;;;3.85;;
19867;SDS011;10096;51.112;6.776;2023-06-05T02:21:59;9.18;;;4.03;;
19867;SDS011;10096;51.112;6.776;2023-06-05T02:24:27;6.35;;;3.80;;
19867;SDS011;10096;51.112;6.776;2023-06-05T02:26:57;4.78;;;3.90;;
19867;SDS011;10096;51.112;6.776;2023-06-05T02:29:24;5.55;;;3.80;;
19867;SDS011;10096;51.112;6.776;2023-06-05T02:31:54;6.95;;;3.67;;
19867;SDS011;10096;51.112;6.776;2023-06-05T02:34:23;6.80;;;4.05;;
19867;SDS011;10096;51.112;6.776;2023-06-05T02:36:51;5.57;;;3.63;;
19867;SDS011;10096;51.112;6.776;2023-06-05T02:39:19;5.57;;;4.45;;
19867;SDS011;10096;51.112;6.776;2023-06-05T02:41:52;5.75;;;3.95;;
19867;SDS011;10096;51.112;6.776;2023-06-05T02:44:22;5.88;;;3.70;;
19867;SDS011;10096;51.112;6.776;2023-06-05T02:46:49;4.05;;;3.65;;
19867;SDS011;10096;51.112;6.776;2023-06-05T02:49:21;6.80;;;4.32;;
19867;SDS011;10096;51.112;6.776;2023-06-05T02:51:49;7.25;;;4.03;;
19867;SDS011;10096;51.112;6.776;2023-06-05T02:54:16;5.70;;;3.70;;
19867;SDS011;10096;51.112;6.776;2023-06-05T02:56:46;5.05;;;4.05;;
19867;SDS011;10096;51.112;6.776;2023-06-05T02:59:15;7.10;;;3.92;;
19867;SDS011;10096;51.112;6.776;2023-06-05T03:01:42;7.72;;;4.28;;
19867;SDS011;10096;51.112;6.776;2023-06-05T03:04:12;6.53;;;4.22;;
19867;SDS011;10096;51.112;6.776;2023-06-05T03:06:49;6.53;;;3.67;;
19867;SDS011;10096;51.112;6.776;2023-06-05T03:09:18;9.18;;;4.05;;
19867;SDS011;10096;51.112;6.776;2023-06-05T03:11:47;6.82;;;4.05;;
19867;SDS011;10096;51.112;6.776;2023-06-05T03:14:15;9.48;;;5.15;;
19867;SDS011;10096;51.112;6.776;2023-06-05T03:16:43;5.05;;;3.83;;
19867;SDS011;10096;51.112;6.776;2023-06-05T03:19:11;5.15;;;4.38;;
19867;SDS011;10096;51.112;6.776;2023-06-05T03:21:38;5.93;;;4.32;;
19867;SDS011;10096;51.112;6.776;2023-06-05T03:24:08;7.20;;;3.97;;
19867;SDS011;10096;51.112;6.776;2023-06-05T03:26:40;7.55;;;4.72;;
19867;SDS011;10096;51.112;6.776;2023-06-05T03:29:09;7.03;;;4.63;;
19867;SDS011;10096;51.112;6.776;2023-06-05T03:31:39;7.68;;;4.40;;
19867;SDS011;10096;51.112;6.776;2023-06-05T03:34:11;6.47;;;4.70;;
19867;SDS011;10096;51.112;6.776;2023-06-05T03:36:39;6.93;;;4.20;;
19867;SDS011;10096;51.112;6.776;2023-06-05T03:39:08;10.10;;;4.72;;
19867;SDS011;10096;51.112;6.776;2023-06-05T03:41:37;6.28;;;4.68;;
19867;SDS011;10096;51.112;6.776;2023-06-05T03:44:05;6.38;;;4.90;;
19867;SDS011;10096;51.112;6.776;2023-06-05T03:46:33;7.45;;;4.82;;
19867;SDS011;10096;51.112;6.776;2023-06-05T03:49:01;5.28;;;4.47;;
19867;SDS011;10096;51.112;6.776;2023-06-05T03:51:34;8.20;;;4.82;;
19867;SDS011;10096;51.112;6.776;2023-06-05T03:54:01;5.97;;;4.55;;
19867;SDS011;10096;51.112;6.776;2023-06-05T03:56:31;5.97;;;4.15;;
19867;SDS011;10096;51.112;6.776;2023-06-05T03:59:01;8.02;;;4.40;;
19867;SDS011;10096;51.112;6.776;2023-06-05T04:01:34;5.22;;;3.92;;
19867;SDS011;10096;51.112;6.776;2023-06-05T04:04:02;6.93;;;4.20;;
19867;SDS011;10096;51.112;6.776;2023-06-05T04:06:31;4.95;;;3.88;;
19867;SDS011;10096;51.112;6.776;2023-06-05T04:08:59;5.53;;;3.95;;
19867;SDS011;10096;51.112;6.776;2023-06-05T04:11:27;4.95;;;3.83;;
19867;SDS011;10096;51.112;6.776;2023-06-05T04:13:58;7.28;;;4.55;;
19867;SDS011;10096;51.112;6.776;2023-06-05T04:16:29;8.18;;;4.47;;
19867;SDS011;10096;51.112;6.776;2023-06-05T04:18:57;6.18;;;4.75;;
19867;SDS011;10096;51.112;6.776;2023-06-05T04:21:28;5.82;;;4.57;;
19867;SDS011;10096;51.112;6.776;2023-06-05T04:23:58;6.25;;;5.15;;
19867;SDS011;10096;51.112;6.776;2023-06-05T04:26:32;7.60;;;4.22;;
19867;SDS011;10096;51.112;6.776;2023-06-05T04:29:02;6.53;;;4.47;;
19867;SDS011;10096;51.112;6.776;2023-06-05T04:31:38;6.30;;;4.43;;
19867;SDS011;10096;51.112;6.776;2023-06-05T04:34:07;7.38;;;4.50;;
19867;SDS011;10096;51.112;6.776;2023-06-05T04:36:36;8.73;;;5.03;;
19867;SDS011;10096;51.112;6.776;2023-06-05T04:39:05;6.05;;;4.55;;
19867;SDS011;10096;51.112;6.776;2023-06-05T04:41:40;5.47;;;4.50;;
19867;SDS011;10096;51.112;6.776;2023-06-05T04:44:12;6.93;;;4.40;;
19867;SDS011;10096;51.112;6.776;2023-06-05T04:46:45;5.93;;;4.72;;
19867;SDS011;10096;51.112;6.776;2023-06-05T04:49:13;5.35;;;4.20;;
19867;SDS011;10096;51.112;6.776;2023-06-05T04:51:42;8.77;;;4.93;;
19867;SDS011;10096;51.112;6.776;2023-06-05T04:54:13;6.85;;;4.57;;
19867;SDS011;10096;51.112;6.776;2023-06-05T04:56:41;7.82;;;4.45;;
19867;SDS011;10096;51.112;6.776;2023-06-05T04:59:16;6.10;;;4.57;;
19867;SDS011;10096;51.112;6.776;2023-06-05T05:01:44;10.18;;;5.30;;
19867;SDS011;10096;51.112;6.776;2023-06-05T05:04:17;7.53;;;4.25;;
19867;SDS011;10096;51.112;6.776;2023-06-05T05:06:44;6.05;;;4.78;;
19867;SDS011;10096;51.112;6.776;2023-06-05T05:09:13;6.13;;;4.50;;
19867;SDS011;10096;51.112;6.776;2023-06-05T05:11:40;5.78;;;4.72;;
19867;SDS011;10096;51.112;6.776;2023-06-05T05:14:08;7.50;;;4.85;;
19867;SDS011;10096;51.112;6.776;2023-06-05T05:16:38;7.55;;;4.70;;
19867;SDS011;10096;51.112;6.776;2023-06-05T05:19:08;6.57;;;4.70;;
19867;SDS011;10096;51.112;6.776;2023-06-05T05:21:36;12.38;;;4.65;;
19867;SDS011;10096;51.112;6.776;2023-06-05T05:24:04;7.18;;;4.97;;
19867;SDS011;10096;51.112;6.776;2023-06-05T05:26:32;5.93;;;4.57;;
19867;SDS011;10096;51.112;6.776;2023-06-05T05:29:01;6.78;;;4.80;;
19867;SDS011;10096;51.112;6.776;2023-06-05T05:31:28;6.57;;;5.15;;
19867;SDS011;10096;51.112;6.776;2023-06-05T05:34:00;7.82;;;4.65;;
19867;SDS011;10096;51.112;6.776;2023-06-05T05:36:28;7.18;;;5.00;;
19867;SDS011;10096;51.112;6.776;2023-06-05T05:38:58;5.40;;;4.80;;
19867;SDS011;10096;51.112;6.776;2023-06-05T05:41:26;5.68;;;4.82;;
19867;SDS011;10096;51.112;6.776;2023-06-05T05:43:53;7.45;;;5.07;;
19867;SDS011;10096;51.112;6.776;2023-06-05T05:46:21;7.00;;;5.28;;
19867;SDS011;10096;51.112;6.776;2023-06-05T05:48:49;5.75;;;5.20;;
19867;SDS011;10096;51.112;6.776;2023-06-05T05:51:24;8.00;;;4.93;;
19867;SDS011;10096;51.112;6.776;2023-06-05T05:53:55;7.57;;;4.85;;
19867;SDS011;10096;51.112;6.776;2023-06-05T05:56:26;6.95;;;5.65;;
19867;SDS011;10096;51.112;6.776;2023-06-05T05:58:54;5.50;;;5.00;;
19867;SDS011;10096;51.112;6.776;2023-06-05T06:01:21;8.60;;;5.10;;
19867;SDS011;10096;51.112;6.776;2023-06-05T06:03:49;6.18;;;4.78;;
19867;SDS011;10096;51.112;6.776;2023-06-05T06:06:18;6.07;;;4.95;;
19867;SDS011;10096;51.112;6.776;2023-06-05T06:08:47;7.15;;;5.00;;
19867;SDS011;10096;51.112;6.776;2023-06-05T06:11:15;5.07;;;4.60;;
19867;SDS011;10096;51.112;6.776;2023-06-05T06:13:43;5.30;;;4.80;;
19867;SDS011;10096;51.112;6.776;2023-06-05T06:16:10;6.47;;;5.30;;
19867;SDS011;10096;51.112;6.776;2023-06-05T06:18:38;5.35;;;4.65;;
19867;SDS011;10096;51.112;6.776;2023-06-05T06:21:05;6.03;;;4.97;;
19867;SDS011;10096;51.112;6.776;2023-06-05T06:23:37;7.03;;;5.35;;
19867;SDS011;10096;51.112;6.776;2023-06-05T06:26:07;8.10;;;5.18;;
19867;SDS011;10096;51.112;6.776;2023-06-05T06:28:35;6.20;;;4.97;;
19867;SDS011;10096;51.112;6.776;2023-06-05T06:31:03;6.82;;;5.00;;
19867;SDS011;10096;51.112;6.776;2023-06-05T06:33:31;5.32;;;4.55;;
19867;SDS011;10096;51.112;6.776;2023-06-05T06:35:58;6.05;;;5.45;;
19867;SDS011;10096;51.112;6.776;2023-06-05T06:38:26;5.95;;;4.93;;
19867;SDS011;10096;51.112;6.776;2023-06-05T06:40:57;7.22;;;6.22;;
19867;SDS011;10096;51.112;6.776;2023-06-05T06:43:25;6.60;;;5.13;;
19867;SDS011;10096;51.112;6.776;2023-06-05T06:45:52;5.97;;;5.05;;
19867;SDS011;10096;51.112;6.776;2023-06-05T06:48:20;6.20;;;4.60;;
19867;SDS011;10096;51.112;6.776;2023-06-05T06:50:47;6.88;;;4.88;;
19867;SDS011;10096;51.112;6.776;2023-06-05T06:53:15;4.65;;;4.25;;
19867;SDS011;10096;51.112;6.776;2023-06-05T06:55:43;6.20;;;4.68;;
19867;SDS011;10096;51.112;6.776;2023-06-05T06:58:13;6.13;;;4.45;;
19867;SDS011;10096;51.112;6.776;2023-06-05T07:00:41;6.32;;;4.63;;
19867;SDS011;10096;51.112;6.776;2023-06-05T07:03:09;5.03;;;4.45;;
19867;SDS011;10096;51.112;6.776;2023-06-05T07:05:37;5.43;;;4.38;;
19867;SDS011;10096;51.112;6.776;2023-06-05T07:08:12;7.60;;;4.60;;
19867;SDS011;10096;51.112;6.776;2023-06-05T07:10:39;5.22;;;4.63;;
19867;SDS011;10096;51.112;6.776;2023-06-05T07:13:07;7.43;;;4.53;;
19867;SDS011;10096;51.112;6.776;2023-06-05T07:15:41;7.78;;;4.82;;
19867;SDS011;10096;51.112;6.776;2023-06-05T07:18:10;5.78;;;3.95;;
19867;SDS011;10096;51.112;6.776;2023-06-05T07:20:40;8.90;;;5.00;;
19867;SDS011;10096;51.112;6.776;2023-06-05T07:23:08;6.78;;;4.80;;
19867;SDS011;10096;51.112;6.776;2023-06-05T07:25:44;11.45;;;5.15;;
19867;SDS011;10096;51.112;6.776;2023-06-05T07:28:11;5.07;;;4.32;;
19867;SDS011;10096;51.112;6.776;2023-06-05T07:30:44;6.72;;;4.65;;
19867;SDS011;10096;51.112;6.776;2023-06-05T07:33:12;5.30;;;4.80;;
19867;SDS011;10096;51.112;6.776;2023-06-05T07:35:40;6.72;;;4.85;;
19867;SDS011;10096;51.112;6.776;2023-06-05T07:38:12;6.00;;;3.90;;
19867;SDS011;10096;51.112;6.776;2023-06-05T07:40:45;4.60;;;4.05;;
19867;SDS011;10096;51.112;6.776;2023-06-05T07:43:17;4.10;;;3.70;;
19867;SDS011;10096;51.112;6.776;2023-06-05T07:45:47;4.25;;;3.83;;
19867;SDS011;10096;51.112;6.776;2023-06-05T07:48:15;5.28;;;4.55;;
19867;SDS011;10096;51.112;6.776;2023-06-05T07:50:46;6.25;;;4.20;;
19867;SDS011;10096;51.112;6.776;2023-06-05T07:53:14;4.88;;;3.60;;
19867;SDS011;10096;51.112;6.776;2023-06-05T07:55:41;4.82;;;4.32;;
19867;SDS011;10096;51.112;6.776;2023-06-05T07:58:09;5.03;;;4.15;;
19867;SDS011;10096;51.112;6.776;2023-06-05T08:00:40;5.30;;;4.10;;
19867;SDS011;10096;51.112;6.776;2023-06-05T08:03:14;6.97;;;4.22;;
19867;SDS011;10096;51.112;6.776;2023-06-05T08:06:09;8.65;;;4.05;;
19867;SDS011;10096;51.112;6.776;2023-06-05T08:08:37;7.10;;;4.13;;
19867;SDS011;10096;51.112;6.776;2023-06-05T08:11:04;6.65;;;3.92;;
19867;SDS011;10096;51.112;6.776;2023-06-05T08:13:32;4.78;;;3.65;;
19867;SDS011;10096;51.112;6.776;2023-06-05T08:16:02;6.63;;;4.03;;
19867;SDS011;10096;51.112;6.776;2023-06-05T08:18:35;4.95;;;4.28;;
19867;SDS011;10096;51.112;6.776;2023-06-05T08:21:08;6.10;;;3.72;;
19867;SDS011;10096;51.112;6.776;2023-06-05T08:23:36;4.80;;;3.53;;
19867;SDS011;10096;51.112;6.776;2023-06-05T08:26:07;6.03;;;4.53;;
19867;SDS011;10096;51.112;6.776;2023-06-05T08:28:37;5.63;;;3.88;;
19867;SDS011;10096;51.112;6.776;2023-06-05T08:31:06;6.00;;;3.80;;
19867;SDS011;10096;51.112;6.776;2023-06-05T08:33:42;9.25;;;3.78;;
19867;SDS011;10096;51.112;6.776;2023-06-05T08:36:10;5.85;;;4.05;;
19867;SDS011;10096;51.112;6.776;2023-06-05T08:38:38;4.53;;;4.05;;
19867;SDS011;10096;51.112;6.776;2023-06-05T08:41:06;8.00;;;4.25;;
19867;SDS011;10096;51.112;6.776;2023-06-05T08:43:38;6.97;;;3.65;;
19867;SDS011;10096;51.112;6.776;2023-06-05T08:46:07;7.15;;;3.92;;
19867;SDS011;10096;51.112;6.776;2023-06-05T08:48:37;4.65;;;3.75;;
19867;SDS011;10096;51.112;6.776;2023-06-05T08:51:12;5.63;;;3.83;;
19867;SDS011;10096;51.112;6.776;2023-06-05T08:53:41;4.80;;;3.70;;
19867;SDS011;10096;51.112;6.776;2023-06-05T08:56:10;6.47;;;3.58;;
19867;SDS011;10096;51.112;6.776;2023-06-05T08:58:39;7.93;;;3.60;;
19867;SDS011;10096;51.112;6.776;2023-06-05T09:01:09;7.03;;;4.00;;
19867;SDS011;10096;51.112;6.776;2023-06-05T09:03:42;5.40;;;3.40;;
19867;SDS011;10096;51.112;6.776;2023-06-05T09:06:11;5.28;;;4.78;;
19867;SDS011;10096;51.112;6.776;2023-06-05T09:08:40;6.63;;;3.65;;
19867;SDS011;10096;51.112;6.776;2023-06-05T09:11:22;5.38;;;3.58;;
19867;SDS011;10096;51.112;6.776;2023-06-05T09:13:54;4.68;;;4.28;;
19867;SDS011;10096;51.112;6.776;2023-06-05T09:16:33;6.68;;;4.03;;
19867;SDS011;10096;51.112;6.776;2023-06-05T09:19:04;4.80;;;3.67;;
19867;SDS011;10096;51.112;6.776;2023-06-05T09:21:33;5.10;;;3.70;;
19867;SDS011;10096;51.112;6.776;2023-06-05T09:24:12;6.57;;;3.90;;
19867;SDS011;10096;51.112;6.776;2023-06-05T09:26:53;4.70;;;4.20;;
19867;SDS011;10096;51.112;6.776;2023-06-05T09:29:26;6.53;;;4.28;;
19867;SDS011;10096;51.112;6.776;2023-06-05T09:31:57;3.90;;;3.40;;
19867;SDS011;10096;51.112;6.776;2023-06-05T09:34:28;3.83;;;3.45;;
19867;SDS011;10096;51.112;6.776;2023-06-05T09:37:00;5.97;;;4.05;;
19867;SDS011;10096;51.112;6.776;2023-06-05T09:39:29;6.10;;;3.17;;
19867;SDS011;10096;51.112;6.776;2023-06-05T09:41:58;3.83;;;3.47;;
19867;SDS011;10096;51.112;6.776;2023-06-05T09:44:30;5.70;;;3.47;;
19867;SDS011;10096;51.112;6.776;2023-06-05T09:47:00;3.92;;;3.53;;
19867;SDS011;10096;51.112;6.776;2023-06-05T09:49:45;5.32;;;3.50;;
19867;SDS011;10096;51.112;6.776;2023-06-05T09:52:14;7.13;;;3.63;;
19867;SDS011;10096;51.112;6.776;2023-06-05T09:54:44;10.00;;;3.40;;
19867;SDS011;10096;51.112;6.776;2023-06-05T09:57:13;5.05;;;3.58;;
19867;SDS011;10096;51.112;6.776;2023-06-05T09:59:44;3.83;;;2.80;;
19867;SDS011;10096;51.112;6.776;2023-06-05T10:02:15;5.28;;;3.58;;
19867;SDS011;10096;51.112;6.776;2023-06-05T10:04:47;3.10;;;2.80;;
19867;SDS011;10096;51.112;6.776;2023-06-05T10:07:21;3.72;;;3.28;;
19867;SDS011;10096;51.112;6.776;2023-06-05T10:09:49;4.35;;;3.05;;
19867;SDS011;10096;51.112;6.776;2023-06-05T10:12:17;4.40;;;3.50;;
19867;SDS011;10096;51.112;6.776;2023-06-05T10:14:47;8.85;;;3.47;;
19867;SDS011;10096;51.112;6.776;2023-06-05T10:17:20;4.18;;;3.50;;
19867;SDS011;10096;51.112;6.776;2023-06-05T10:19:50;6.72;;;3.33;;
19867;SDS011;10096;51.112;6.776;2023-06-05T10:22:18;4.57;;;3.55;;
19867;SDS011;10096;51.112;6.776;2023-06-05T10:24:46;4.07;;;3.63;;
19867;SDS011;10096;51.112;6.776;2023-06-05T10:33:34;4.70;;;3.40;;
19867;SDS011;10096;51.112;6.776;2023-06-05T10:36:20;5.88;;;3.67;;
19867;SDS011;10096;51.112;6.776;2023-06-05T10:39:08;6.57;;;3.30;;
19867;SDS011;10096;51.112;6.776;2023-06-05T10:41:36;5.57;;;4.45;;
19867;SDS011;10096;51.112;6.776;2023-06-05T10:44:04;4.00;;;3.60;;
19867;SDS011;10096;51.112;6.776;2023-06-05T10:46:33;8.85;;;4.05;;
19867;SDS011;10096;51.112;6.776;2023-06-05T10:49:12;4.95;;;4.13;;
19867;SDS011;10096;51.112;6.776;2023-06-05T10:51:44;6.75;;;3.40;;
19867;SDS011;10096;51.112;6.776;2023-06-05T10:57:22;4.82;;;3.83;;
19867;SDS011;10096;51.112;6.776;2023-06-05T10:59:50;4.55;;;3.67;;
19867;SDS011;10096;51.112;6.776;2023-06-05T11:02:38;5.90;;;3.53;;
19867;SDS011;10096;51.112;6.776;2023-06-05T11:05:16;6.70;;;3.80;;
19867;SDS011;10096;51.112;6.776;2023-06-05T11:07:49;4.25;;;3.70;;
19867;SDS011;10096;51.112;6.776;2023-06-05T11:11:04;7.15;;;4.00;;
19867;SDS011;10096;51.112;6.776;2023-06-05T11:16:30;4.88;;;4.10;;
19867;SDS011;10096;51.112;6.776;2023-06-05T11:22:04;6.65;;;3.85;;
19867;SDS011;10096;51.112;6.776;2023-06-05T11:24:38;7.63;;;4.50;;
19867;SDS011;10096;51.112;6.776;2023-06-05T11:27:39;6.05;;;4.35;;
19867;SDS011;10096;51.112;6.776;2023-06-05T11:30:11;6.82;;;4.57;;
19867;SDS011;10096;51.112;6.776;2023-06-05T11:32:39;5.40;;;3.72;;
19867;SDS011;10096;51.112;6.776;2023-06-05T11:35:08;6.00;;;3.90;;
19867;SDS011;10096;51.112;6.776;2023-06-05T11:37:36;6.75;;;4.03;;
19867;SDS011;10096;51.112;6.776;2023-06-05T11:40:09;5.38;;;4.30;;
19867;SDS011;10096;51.112;6.776;2023-06-05T11:42:37;8.35;;;4.35;;
19867;SDS011;10096;51.112;6.776;2023-06-05T11:45:10;5.50;;;4.60;;
19867;SDS011;10096;51.112;6.776;2023-06-05T11:47:38;7.15;;;4.15;;
19867;SDS011;10096;51.112;6.776;2023-06-05T11:50:09;8.10;;;4.50;;
19867;SDS011;10096;51.112;6.776;2023-06-05T11:52:41;4.43;;;3.97;;
19867;SDS011;10096;51.112;6.776;2023-06-05T11:55:31;5.35;;;4.38;;
19867;SDS011;10096;51.112;6.776;2023-06-05T11:58:09;8.00;;;3.80;;
19867;SDS011;10096;51.112;6.776;2023-06-05T12:00:37;5.25;;;3.90;;
19867;SDS011;10096;51.112;6.776;2023-06-05T12:03:10;4.55;;;3.78;;
19867;SDS011;10096;51.112;6.776;2023-06-05T12:05:44;5.45;;;3.95;;
19867;SDS011;10096;51.112;6.776;2023-06-05T12:08:23;6.43;;;3.92;;
19867;SDS011;10096;51.112;6.776;2023-06-05T12:10:54;5.68;;;3.60;;
19867;SDS011;10096;51.112;6.776;2023-06-05T12:13:21;6.00;;;4.00;;
19867;SDS011;10096;51.112;6.776;2023-06-05T12:15:58;4.28;;;3.88;;
19867;SDS011;10096;51.112;6.776;2023-06-05T12:18:32;5.60;;;4.40;;
19867;SDS011;10096;51.112;6.776;2023-06-05T12:21:00;5.18;;;3.90;;
19867;SDS011;10096;51.112;6.776;2023-06-05T12:23:30;5.90;;;3.75;;
19867;SDS011;10096;51.112;6.776;2023-06-05T12:25:59;4.47;;;3.97;;
19867;SDS011;10096;51.112;6.776;2023-06-05T12:28:28;4.63;;;3.55;;
19867;SDS011;10096;51.112;6.776;2023-06-05T12:30:56;6.63;;;4.10;;
19867;SDS011;10096;51.112;6.776;2023-06-05T12:33:24;5.72;;;4.30;;
19867;SDS011;10096;51.112;6.776;2023-06-05T12:36:04;6.32;;;3.75;;
19867;SDS011;10096;51.112;6.776;2023-06-05T12:38:36;5.53;;;4.13;;
19867;SDS011;10096;51.112;6.776;2023-06-05T12:41:16;6.03;;;4.57;;
19867;SDS011;10096;51.112;6.776;2023-06-05T12:43:44;4.43;;;3.78;;
19867;SDS011;10096;51.112;6.776;2023-06-05T12:46:24;4.90;;;4.05;;
19867;SDS011;10096;51.112;6.776;2023-06-05T12:48:51;5.03;;;4.35;;
19867;SDS011;10096;51.112;6.776;2023-06-05T12:51:23;4.53;;;3.45;;
19867;SDS011;10096;51.112;6.776;2023-06-05T12:53:51;6.63;;;4.03;;
19867;SDS011;10096;51.112;6.776;2023-06-05T12:56:21;5.07;;;3.90;;
19867;SDS011;10096;51.112;6.776;2023-06-05T12:58:53;4.55;;;3.90;;
19867;SDS011;10096;51.112;6.776;2023-06-05T13:01:23;4.53;;;3.90;;
19867;SDS011;10096;51.112;6.776;2023-06-05T13:03:51;6.40;;;3.95;;
19867;SDS011;10096;51.112;6.776;2023-06-05T13:06:23;5.90;;;4.03;;
19867;SDS011;10096;51.112;6.776;2023-06-05T13:08:58;5.25;;;4.75;;
19867;SDS011;10096;51.112;6.776;2023-06-05T13:11:30;5.10;;;3.90;;
19867;SDS011;10096;51.112;6.776;2023-06-05T13:14:01;9.57;;;4.38;;
19867;SDS011;10096;51.112;6.776;2023-06-05T13:16:28;7.13;;;4.25;;
19867;SDS011;10096;51.112;6.776;2023-06-05T13:18:59;4.88;;;4.20;;
19867;SDS011;10096;51.112;6.776;2023-06-05T13:21:29;6.85;;;4.00;;
19867;SDS011;10096;51.112;6.776;2023-06-05T13:23:59;6.43;;;4.15;;
19867;SDS011;10096;51.112;6.776;2023-06-05T13:26:31;4.57;;;3.65;;
19867;SDS011;10096;51.112;6.776;2023-06-05T13:28:59;5.78;;;3.92;;
19867;SDS011;10096;51.112;6.776;2023-06-05T13:31:27;6.15;;;3.80;;
19867;SDS011;10096;51.112;6.776;2023-06-05T13:33:55;4.65;;;3.95;;
19867;SDS011;10096;51.112;6.776;2023-06-05T13:36:23;5.10;;;3.97;;
19867;SDS011;10096;51.112;6.776;2023-06-05T13:38:53;5.85;;;3.83;;
19867;SDS011;10096;51.112;6.776;2023-06-05T13:41:21;4.50;;;4.10;;
19867;SDS011;10096;51.112;6.776;2023-06-05T13:43:51;4.20;;;3.80;;
19867;SDS011;10096;51.112;6.776;2023-06-05T13:46:25;4.63;;;3.42;;
19867;SDS011;10096;51.112;6.776;2023-06-05T13:49:05;4.47;;;3.72;;
19867;SDS011;10096;51.112;6.776;2023-06-05T13:51:33;4.60;;;3.95;;
19867;SDS011;10096;51.112;6.776;2023-06-05T13:54:03;4.43;;;3.20;;
19867;SDS011;10096;51.112;6.776;2023-06-05T13:56:34;6.03;;;3.58;;
19867;SDS011;10096;51.112;6.776;2023-06-05T13:59:04;5.57;;;3.83;;
19867;SDS011;10096;51.112;6.776;2023-06-05T14:01:32;6.55;;;3.97;;
19867;SDS011;10096;51.112;6.776;2023-06-05T14:04:00;5.03;;;4.40;;
19867;SDS011;10096;51.112;6.776;2023-06-05T14:06:28;4.00;;;3.60;;
19867;SDS011;10096;51.112;6.776;2023-06-05T14:09:06;7.60;;;4.10;;
19867;SDS011;10096;51.112;6.776;2023-06-05T14:11:36;6.05;;;4.00;;
19867;SDS011;10096;51.112;6.776;2023-06-05T14:14:13;6.53;;;3.80;;
19867;SDS011;10096;51.112;6.776;2023-06-05T14:16:44;5.18;;;3.53;;
19867;SDS011;10096;51.112;6.776;2023-06-05T14:19:11;5.95;;;3.90;;
19867;SDS011;10096;51.112;6.776;2023-06-05T14:21:40;4.80;;;4.03;;
19867;SDS011;10096;51.112;6.776;2023-06-05T14:24:09;5.38;;;4.88;;
19867;SDS011;10096;51.112;6.776;2023-06-05T14:26:39;7.28;;;3.45;;
19867;SDS011;10096;51.112;6.776;2023-06-05T14:29:07;5.35;;;3.72;;
19867;SDS011;10096;51.112;6.776;2023-06-05T14:31:36;5.53;;;3.92;;
19867;SDS011;10096;51.112;6.776;2023-06-05T14:34:05;4.57;;;3.97;;
19867;SDS011;10096;51.112;6.776;2023-06-05T14:36:35;5.32;;;3.72;;
19867;SDS011;10096;51.112;6.776;2023-06-05T14:39:02;5.40;;;3.60;;
19867;SDS011;10096;51.112;6.776;2023-06-05T14:41:31;4.82;;;3.70;;
19867;SDS011;10096;51.112;6.776;2023-06-05T14:44:01;4.88;;;3.88;;
19867;SDS011;10096;51.112;6.776;2023-06-05T14:46:28;4.45;;;4.05;;
19867;SDS011;10096;51.112;6.776;2023-06-05T14:49:01;5.75;;;4.78;;
19867;SDS011;10096;51.112;6.776;2023-06-05T14:51:31;4.28;;;3.75;;
19867;SDS011;10096;51.112;6.776;2023-06-05T14:54:01;4.40;;;3.75;;
19867;SDS011;10096;51.112;6.776;2023-06-05T14:56:53;3.97;;;3.58;;
19867;SDS011;10096;51.112;6.776;2023-06-05T14:59:26;5.78;;;3.92;;
19867;SDS011;10096;51.112;6.776;2023-06-05T15:02:04;5.97;;;3.55;;
19867;SDS011;10096;51.112;6.776;2023-06-05T15:04:36;4.93;;;3.85;;
19867;SDS011;10096;51.112;6.776;2023-06-05T15:07:33;4.63;;;3.97;;
19867;SDS011;10096;51.112;6.776;2023-06-05T15:10:03;4.85;;;4.10;;
19867;SDS011;10096;51.112;6.776;2023-06-05T15:12:33;3.85;;;3.17;;
19867;SDS011;10096;51.112;6.776;2023-06-05T15:15:07;5.03;;;3.75;;
19867;SDS011;10096;51.112;6.776;2023-06-05T15:17:36;5.03;;;4.53;;
19867;SDS011;10096;51.112;6.776;2023-06-05T15:20:07;3.75;;;3.45;;
19867;SDS011;10096;51.112;6.776;2023-06-05T15:22:36;5.45;;;3.80;;
19867;SDS011;10096;51.112;6.776;2023-06-05T15:25:03;4.75;;;3.95;;